Time;durP1;ratioP1;P1;durP2;ratioP2;P2;SDS_P1;SDS_P2;PMS_P1;PMS_P2;Temp;Humidity;BMP_temperature;BMP_pressure;BME280_temperature;BME280_humidity;BME280_pressure;Samples;Min_cycle;Max_cycle;Signal;HPM_P1;HPM_P2
2023/03/20 00:00:34;;;;;;;12.30;11.17;;;8.50;99.90;;;;;;5103244;28;20451;-79
2023/03/20 00:03:02;;;;;;;14.30;12.80;;;8.50;99.90;;;;;;5099154;28;20450;-78
2023/03/20 00:05:31;;;;;;;13.30;11.90;;;8.40;99.90;;;;;;5100844;28;20468;-79
2023/03/20 00:07:59;;;;;;;13.97;12.50;;;8.50;99.90;;;;;;5106303;28;20442;-79
2023/03/20 00:10:32;;;;;;;12.70;11.00;;;8.50;99.90;;;;;;5105659;28;21118;-79
2023/03/20 00:13:01;;;;;;;13.80;12.50;;;8.50;99.90;;;;;;5104892;28;20539;-78
2023/03/20 00:15:31;;;;;;;13.83;12.40;;;8.50;99.90;;;;;;5101704;28;20462;-79
2023/03/20 00:17:58;;;;;;;13.40;10.97;;;8.40;99.90;;;;;;5106263;28;20435;-79
2023/03/20 00:20:25;;;;;;;14.03;12.70;;;8.30;99.90;;;;;;5097381;28;20497;-79
2023/03/20 00:22:53;;;;;;;14.23;12.53;;;8.30;99.90;;;;;;5094100;28;20550;-79
2023/03/20 00:25:22;;;;;;;14.10;12.00;;;8.30;99.90;;;;;;5096142;28;20460;-78
2023/03/20 00:27:49;;;;;;;14.90;11.50;;;8.30;99.90;;;;;;5091914;28;20441;-80
2023/03/20 00:30:21;;;;;;;14.00;12.57;;;8.40;99.90;;;;;;5104675;28;20547;-80
2023/03/20 00:32:49;;;;;;;15.33;12.23;;;8.40;99.90;;;;;;5102519;28;20469;-80
2023/03/20 00:35:25;;;;;;;14.53;11.27;;;8.40;99.90;;;;;;5102481;28;20497;-78
2023/03/20 00:37:52;;;;;;;12.23;11.13;;;8.40;99.90;;;;;;5096779;28;20449;-79
2023/03/20 00:40:20;;;;;;;14.37;11.10;;;8.50;99.90;;;;;;5103328;28;20542;-79
2023/03/20 00:42:51;;;;;;;14.00;12.60;;;8.50;99.90;;;;;;5102308;28;20466;-79
2023/03/20 00:45:21;;;;;;;13.97;12.23;;;8.60;99.90;;;;;;5106331;28;20869;-78
2023/03/20 00:47:50;;;;;;;13.20;11.90;;;8.70;99.90;;;;;;5104516;28;20439;-80
2023/03/20 00:50:20;;;;;;;11.93;10.60;;;8.70;99.90;;;;;;5093101;28;20480;-79
2023/03/20 00:52:48;;;;;;;14.23;11.40;;;8.80;99.90;;;;;;5106356;28;21066;-79
2023/03/20 00:55:16;;;;;;;12.83;11.57;;;8.80;99.90;;;;;;5107130;28;20494;-80
2023/03/20 00:57:46;;;;;;;14.97;12.70;;;8.90;99.90;;;;;;5105740;28;20574;-78
2023/03/20 01:00:22;;;;;;;13.57;11.13;;;8.90;99.90;;;;;;5107234;28;20962;-78
2023/03/20 01:02:50;;;;;;;11.33;10.33;;;8.90;99.90;;;;;;5102231;28;20457;-78
2023/03/20 01:05:17;;;;;;;12.20;11.00;;;9.00;99.90;;;;;;5090820;28;20447;-78
2023/03/20 01:07:44;;;;;;;12.73;11.63;;;9.00;99.90;;;;;;5095632;28;20442;-79
2023/03/20 01:10:12;;;;;;;11.40;10.23;;;9.00;99.90;;;;;;5105946;28;20465;-78
2023/03/20 01:12:39;;;;;;;12.60;11.07;;;9.00;99.90;;;;;;5105878;28;20473;-78
2023/03/20 01:15:22;;;;;;;11.70;10.70;;;9.00;99.90;;;;;;5104633;28;20558;-78
2023/03/20 01:17:49;;;;;;;18.90;12.17;;;9.10;99.90;;;;;;5093600;28;20512;-79
2023/03/20 01:20:24;;;;;;;12.33;11.13;;;9.10;99.90;;;;;;5095190;28;20991;-78
2023/03/20 01:22:51;;;;;;;10.00;8.97;;;9.10;99.90;;;;;;5101953;28;20562;-79
2023/03/20 01:25:18;;;;;;;11.23;10.10;;;9.00;99.90;;;;;;5101322;28;20507;-78
2023/03/20 01:27:49;;;;;;;12.70;10.17;;;9.00;99.90;;;;;;5095971;28;20463;-79
2023/03/20 01:30:20;;;;;;;12.57;11.20;;;9.00;99.90;;;;;;5099443;28;20508;-79
2023/03/20 01:32:49;;;;;;;18.27;11.80;;;8.90;99.90;;;;;;5099975;28;20458;-78
2023/03/20 01:35:18;;;;;;;12.07;10.83;;;8.90;99.90;;;;;;5095443;28;20572;-79
2023/03/20 01:37:45;;;;;;;12.67;11.47;;;8.90;99.90;;;;;;5099446;28;20446;-79
2023/03/20 01:40:23;;;;;;;16.37;11.80;;;8.90;99.90;;;;;;5098451;28;20451;-80
2023/03/20 01:42:50;;;;;;;12.73;11.53;;;8.80;99.90;;;;;;5099605;28;20887;-79
2023/03/20 01:45:21;;;;;;;12.37;11.17;;;8.80;99.90;;;;;;5093278;28;20451;-79
2023/03/20 01:47:50;;;;;;;11.90;10.80;;;8.70;99.90;;;;;;5097922;28;20464;-80
2023/03/20 01:50:29;;;;;;;12.80;10.90;;;8.70;99.90;;;;;;5095944;28;20450;-80
2023/03/20 01:53:04;;;;;;;13.00;11.60;;;8.70;99.90;;;;;;5103518;28;20435;-79
2023/03/20 01:55:32;;;;;;;12.30;11.07;;;8.60;99.90;;;;;;5100753;28;20565;-79
2023/03/20 01:58:03;;;;;;;12.23;10.93;;;8.60;99.90;;;;;;5099143;28;20943;-79
2023/03/20 02:00:30;;;;;;;11.87;10.90;;;8.60;99.90;;;;;;5099890;28;20534;-79
2023/03/20 02:02:59;;;;;;;12.10;11.00;;;8.60;99.90;;;;;;5100269;28;20447;-79
2023/03/20 02:05:27;;;;;;;14.13;11.77;;;8.50;99.90;;;;;;5092961;28;20462;-79
2023/03/20 02:08:02;;;;;;;11.90;10.70;;;8.50;99.90;;;;;;5101276;28;20559;-79
2023/03/20 02:10:29;;;;;;;14.80;11.17;;;8.50;99.90;;;;;;5109163;28;20446;-80
2023/03/20 02:12:57;;;;;;;12.43;11.13;;;8.50;99.90;;;;;;5100704;28;20502;-80
2023/03/20 02:15:27;;;;;;;13.93;12.67;;;8.60;99.90;;;;;;5103722;28;20485;-79
2023/03/20 02:17:54;;;;;;;12.00;10.63;;;8.60;99.90;;;;;;5104854;28;20462;-79
2023/03/20 02:20:41;;;;;;;12.27;11.10;;;8.60;99.90;;;;;;5103698;28;20455;-79
2023/03/20 02:23:44;;;;;;;11.30;10.20;;;8.60;99.90;;;;;;5103524;28;20523;-79
2023/03/20 02:26:38;;;;;;;13.10;11.77;;;8.70;99.90;;;;;;5096436;28;20482;-80
2023/03/20 02:29:45;;;;;;;15.00;11.70;;;8.60;99.90;;;;;;5103826;28;20729;-79
2023/03/20 02:32:54;;;;;;;13.23;11.93;;;8.60;99.90;;;;;;5107773;28;20465;-79
2023/03/20 02:35:58;;;;;;;13.47;12.20;;;8.60;99.90;;;;;;5107263;28;20550;-79
2023/03/20 02:38:36;;;;;;;13.30;11.90;;;8.70;99.90;;;;;;5108926;28;20466;-79
2023/03/20 02:41:13;;;;;;;12.40;11.30;;;8.60;99.90;;;;;;5104648;28;20493;-79
2023/03/20 02:43:45;;;;;;;11.43;10.10;;;8.60;99.90;;;;;;5109027;28;20469;-79
2023/03/20 02:46:19;;;;;;;11.20;10.10;;;8.70;99.90;;;;;;5106140;28;20442;-79
2023/03/20 02:48:54;;;;;;;18.10;12.63;;;8.70;99.90;;;;;;5108029;28;20838;-79
2023/03/20 02:51:27;;;;;;;11.57;10.37;;;8.70;99.90;;;;;;5103753;28;20543;-79
2023/03/20 02:54:05;;;;;;;12.27;10.60;;;8.70;99.90;;;;;;5107011;28;20486;-79
2023/03/20 02:56:37;;;;;;;11.50;10.30;;;8.70;99.90;;;;;;5096717;28;20516;-79
2023/03/20 02:59:14;;;;;;;12.67;11.40;;;8.70;99.90;;;;;;5106070;28;20454;-80
2023/03/20 03:01:47;;;;;;;13.07;10.70;;;8.70;99.90;;;;;;5109277;28;20458;-81
2023/03/20 03:04:18;;;;;;;10.50;9.40;;;8.60;99.90;;;;;;5106139;28;20527;-79
2023/03/20 03:06:49;;;;;;;10.13;9.13;;;8.60;99.90;;;;;;5103134;28;20458;-79
2023/03/20 03:09:21;;;;;;;12.00;10.70;;;8.60;99.90;;;;;;5103051;28;20958;-79
2023/03/20 03:11:51;;;;;;;14.07;10.77;;;8.60;99.90;;;;;;5095792;28;20514;-79
2023/03/20 03:14:27;;;;;;;10.47;9.47;;;8.60;99.90;;;;;;5100895;28;20483;-79
2023/03/20 03:16:56;;;;;;;12.60;10.93;;;8.70;99.90;;;;;;5104494;28;20470;-79
2023/03/20 03:19:26;;;;;;;10.53;9.63;;;8.80;99.90;;;;;;5104520;28;20458;-77
2023/03/20 03:21:54;;;;;;;9.80;8.50;;;8.90;99.90;;;;;;5098934;28;20465;-79
2023/03/20 03:24:30;;;;;;;8.33;7.63;;;8.90;99.90;;;;;;5099319;28;20527;-80
2023/03/20 03:27:00;;;;;;;9.90;9.20;;;8.90;99.90;;;;;;5100279;28;20890;-79
2023/03/20 03:29:32;;;;;;;9.50;8.60;;;8.90;99.90;;;;;;5100962;28;20446;-79
2023/03/20 03:32:02;;;;;;;8.40;7.53;;;8.90;99.90;;;;;;5104941;28;20459;-79
2023/03/20 03:34:30;;;;;;;8.27;7.33;;;8.90;99.90;;;;;;5100959;28;20490;-79
2023/03/20 03:37:03;;;;;;;9.47;8.57;;;8.90;99.90;;;;;;5099608;28;20830;-78
2023/03/20 03:39:39;;;;;;;9.10;8.20;;;8.90;99.90;;;;;;5100716;28;20454;-79
2023/03/20 03:42:10;;;;;;;8.20;7.40;;;8.90;99.90;;;;;;5101821;28;20570;-80
2023/03/20 03:44:45;;;;;;;8.33;7.43;;;8.80;99.90;;;;;;5098922;28;20968;-79
2023/03/20 03:47:19;;;;;;;9.30;8.50;;;8.80;99.90;;;;;;5101054;28;20458;-78
2023/03/20 03:49:53;;;;;;;6.93;6.23;;;8.90;99.90;;;;;;5097294;28;20559;-79
2023/03/20 03:52:23;;;;;;;11.03;7.20;;;8.80;99.90;;;;;;5100047;28;20462;-78
2023/03/20 03:54:54;;;;;;;9.30;8.40;;;8.80;99.90;;;;;;5094854;28;20478;-77
2023/03/20 03:57:27;;;;;;;12.80;7.00;;;8.80;99.90;;;;;;5098193;28;20512;-78
2023/03/20 03:59:57;;;;;;;11.33;10.23;;;8.80;99.90;;;;;;5099000;28;20877;-78
2023/03/20 04:02:24;;;;;;;9.80;8.80;;;8.80;99.90;;;;;;5097985;28;20508;-78
2023/03/20 04:04:53;;;;;;;8.60;7.90;;;8.80;99.90;;;;;;5096796;28;20450;-77
2023/03/20 04:07:21;;;;;;;9.33;8.40;;;8.70;99.90;;;;;;5104821;28;20463;-78
2023/03/20 04:09:48;;;;;;;8.93;8.03;;;8.80;99.90;;;;;;5096734;28;20469;-78
2023/03/20 04:12:34;;;;;;;9.40;8.20;;;8.80;99.90;;;;;;5104180;28;21163;-78
2023/03/20 04:15:01;;;;;;;9.80;7.40;;;8.80;99.90;;;;;;5094443;28;20560;-78
2023/03/20 04:17:28;;;;;;;8.33;7.53;;;8.70;99.90;;;;;;5102696;28;20458;-77
2023/03/20 04:19:55;;;;;;;9.10;8.20;;;8.70;99.90;;;;;;5099405;28;20459;-78
2023/03/20 04:22:22;;;;;;;9.50;8.70;;;8.70;99.90;;;;;;5099881;28;20508;-78
2023/03/20 04:24:50;;;;;;;11.30;10.33;;;8.70;99.90;;;;;;5092034;28;21003;-78
2023/03/20 04:27:17;;;;;;;9.37;8.43;;;8.60;99.90;;;;;;5100313;28;20541;-78
2023/03/20 04:29:45;;;;;;;8.97;8.07;;;8.60;99.90;;;;;;5105256;28;20567;-78
2023/03/20 04:32:12;;;;;;;8.83;8.03;;;8.60;99.90;;;;;;5098002;28;20459;-78
2023/03/20 04:34:39;;;;;;;9.40;8.50;;;8.60;99.90;;;;;;5104508;28;20558;-78
2023/03/20 04:37:07;;;;;;;9.20;8.30;;;8.60;99.90;;;;;;5098761;28;20540;-78
2023/03/20 04:39:35;;;;;;;11.60;9.23;;;8.60;99.90;;;;;;5106147;28;20513;-78
2023/03/20 04:42:03;;;;;;;9.27;8.43;;;8.50;99.90;;;;;;5106690;28;20868;-79
2023/03/20 04:44:30;;;;;;;11.00;9.70;;;8.50;99.90;;;;;;5107193;28;20985;-78
2023/03/20 04:46:58;;;;;;;10.93;9.67;;;8.50;99.90;;;;;;5106108;28;20918;-78
2023/03/20 04:49:25;;;;;;;12.53;9.37;;;8.50;99.90;;;;;;5105249;28;20515;-79
2023/03/20 04:51:52;;;;;;;10.80;8.57;;;8.50;99.90;;;;;;5096046;28;20462;-78
2023/03/20 04:54:20;;;;;;;13.37;11.97;;;8.50;99.90;;;;;;5097957;28;20451;-78
2023/03/20 04:56:47;;;;;;;10.47;9.57;;;8.50;99.90;;;;;;5094347;28;20463;-78
2023/03/20 04:59:14;;;;;;;11.80;10.23;;;8.50;99.90;;;;;;5103824;28;20510;-79
2023/03/20 05:01:41;;;;;;;13.23;10.90;;;8.50;99.90;;;;;;5107267;28;20515;-78
2023/03/20 05:04:10;;;;;;;14.53;12.40;;;8.50;99.90;;;;;;5097184;28;20904;-79
2023/03/20 05:06:37;;;;;;;11.77;10.57;;;8.50;99.90;;;;;;5098873;28;21272;-79
2023/03/20 05:09:04;;;;;;;11.00;9.97;;;8.50;99.90;;;;;;5100446;28;20495;-79
2023/03/20 05:11:31;;;;;;;12.67;11.37;;;8.50;99.90;;;;;;5106767;28;20476;-78
2023/03/20 05:13:58;;;;;;;13.57;12.17;;;8.50;99.90;;;;;;5096187;28;20455;-79
2023/03/20 05:16:25;;;;;;;15.00;13.50;;;8.50;99.90;;;;;;5096298;28;20562;-79
2023/03/20 05:18:52;;;;;;;13.90;12.33;;;8.50;99.90;;;;;;5097005;28;20466;-79
2023/03/20 05:21:20;;;;;;;17.37;13.90;;;8.50;99.90;;;;;;5098321;28;20503;-79
2023/03/20 05:23:47;;;;;;;15.03;13.47;;;8.50;99.90;;;;;;5099607;28;20539;-79
2023/03/20 05:26:14;;;;;;;16.13;11.87;;;8.50;99.90;;;;;;5099953;28;21001;-78
2023/03/20 05:28:41;;;;;;;13.20;11.67;;;8.50;99.90;;;;;;5102900;28;20451;-79
2023/03/20 05:31:09;;;;;;;14.40;11.70;;;8.60;99.90;;;;;;5095793;28;20489;-79
2023/03/20 05:33:36;;;;;;;12.63;11.53;;;8.60;99.90;;;;;;5101676;28;20490;-78
2023/03/20 05:36:03;;;;;;;17.50;12.97;;;8.60;99.90;;;;;;5099103;28;20573;-79
2023/03/20 05:38:32;;;;;;;14.10;12.63;;;8.60;99.90;;;;;;5093913;28;20466;-78
2023/03/20 05:41:00;;;;;;;13.53;12.33;;;8.60;99.90;;;;;;5104335;28;20511;-79
2023/03/20 05:43:27;;;;;;;23.23;13.90;;;8.70;99.90;;;;;;5099844;28;20463;-79
2023/03/20 05:45:54;;;;;;;13.83;12.53;;;8.70;99.90;;;;;;5093941;28;20467;-79
2023/03/20 05:48:22;;;;;;;16.67;13.13;;;8.70;99.90;;;;;;5101262;28;20450;-79
2023/03/20 05:50:49;;;;;;;14.10;12.77;;;8.80;99.90;;;;;;5101243;28;20446;-79
2023/03/20 05:53:16;;;;;;;13.83;12.43;;;8.90;99.90;;;;;;5103818;28;20542;-79
2023/03/20 05:55:44;;;;;;;13.90;12.20;;;8.90;99.90;;;;;;5104838;28;21190;-78
2023/03/20 05:58:12;;;;;;;13.47;11.93;;;9.00;99.90;;;;;;5105053;28;20458;-79
2023/03/20 06:00:39;;;;;;;14.03;12.60;;;9.00;99.90;;;;;;5105811;28;20482;-80
2023/03/20 06:03:06;;;;;;;13.93;11.93;;;9.00;99.90;;;;;;5104677;28;21241;-78
2023/03/20 06:05:34;;;;;;;13.30;12.20;;;9.10;99.90;;;;;;5105658;28;20573;-77
2023/03/20 06:08:01;;;;;;;20.47;14.30;;;9.10;99.90;;;;;;5107467;28;20450;-78
2023/03/20 06:10:28;;;;;;;14.37;12.17;;;9.10;99.90;;;;;;5106645;28;21223;-81
2023/03/20 06:12:59;;;;;;;28.87;17.20;;;9.10;99.90;;;;;;5103786;28;20457;-79
2023/03/20 06:15:27;;;;;;;16.53;13.97;;;9.10;99.90;;;;;;5103492;28;20484;-78
2023/03/20 06:17:54;;;;;;;15.97;13.70;;;9.20;99.90;;;;;;5105371;28;20458;-78
2023/03/20 06:20:21;;;;;;;16.13;14.43;;;9.20;99.90;;;;;;5106426;28;20451;-78
2023/03/20 06:22:48;;;;;;;15.80;14.10;;;9.20;99.90;;;;;;5105691;28;20515;-77
2023/03/20 06:25:15;;;;;;;17.00;15.20;;;9.20;99.90;;;;;;5106528;28;20454;-80
2023/03/20 06:27:42;;;;;;;15.57;13.43;;;9.20;99.90;;;;;;5105452;28;20442;-79
2023/03/20 06:30:11;;;;;;;17.67;12.83;;;9.20;99.90;;;;;;5106581;28;20462;-78
2023/03/20 06:32:38;;;;;;;14.00;12.60;;;9.20;99.90;;;;;;5103669;28;21067;-78
2023/03/20 06:35:06;;;;;;;16.83;13.43;;;9.30;99.90;;;;;;5103932;28;20478;-78
2023/03/20 06:37:33;;;;;;;17.60;13.50;;;9.30;99.90;;;;;;5103196;28;20473;-79
2023/03/20 06:40:00;;;;;;;16.93;15.27;;;9.40;99.90;;;;;;5107268;28;20446;-80
2023/03/20 06:42:27;;;;;;;16.97;13.53;;;9.50;99.90;;;;;;5107118;28;20503;-79
2023/03/20 06:44:55;;;;;;;12.10;11.00;;;9.60;99.90;;;;;;5107579;28;20450;-79
2023/03/20 06:47:23;;;;;;;13.43;12.03;;;9.80;99.90;;;;;;5104197;28;20467;-78
2023/03/20 06:49:50;;;;;;;14.47;12.80;;;9.80;99.90;;;;;;5105726;27;20980;-77
2023/03/20 06:52:20;;;;;;;14.83;11.90;;;9.90;99.90;;;;;;5103573;28;20457;-79
2023/03/20 06:54:47;;;;;;;14.20;12.23;;;9.90;99.90;;;;;;5106323;28;20489;-79
2023/03/20 06:57:16;;;;;;;12.00;10.70;;;10.00;99.90;;;;;;5107363;28;20974;-78
2023/03/20 06:59:43;;;;;;;13.63;10.97;;;10.10;99.90;;;;;;5106090;28;20447;-79
2023/03/20 07:02:10;;;;;;;9.97;9.13;;;10.20;99.90;;;;;;5106483;28;20482;-80
2023/03/20 07:04:39;;;;;;;9.00;8.20;;;10.20;99.90;;;;;;5105781;28;20504;-75
2023/03/20 07:07:06;;;;;;;8.60;7.70;;;10.30;99.90;;;;;;5102682;28;20534;-75
2023/03/20 07:09:33;;;;;;;9.23;8.43;;;10.30;99.90;;;;;;5101390;28;21017;-75
2023/03/20 07:12:01;;;;;;;10.83;8.63;;;10.30;99.90;;;;;;5107616;28;20450;-79
2023/03/20 07:14:28;;;;;;;11.40;10.30;;;10.30;99.90;;;;;;5106771;28;20545;-76
2023/03/20 07:16:55;;;;;;;8.77;7.90;;;10.30;99.90;;;;;;5101500;28;20514;-79
2023/03/20 07:19:22;;;;;;;14.17;11.27;;;10.30;99.90;;;;;;5104713;28;20533;-73
2023/03/20 07:21:55;;;;;;;10.90;9.47;;;10.30;99.90;;;;;;5103581;28;20545;-73
2023/03/20 07:24:22;;;;;;;10.53;9.33;;;10.30;99.90;;;;;;5102449;27;20462;-74
2023/03/20 07:26:49;;;;;;;10.10;8.80;;;10.20;99.90;;;;;;5106226;27;20827;-74
2023/03/20 07:29:16;;;;;;;12.87;9.00;;;10.30;99.90;;;;;;5100569;27;20519;-74
2023/03/20 07:31:43;;;;;;;12.27;9.90;;;10.30;99.90;;;;;;5109128;27;20498;-75
2023/03/20 07:34:10;;;;;;;24.20;16.53;;;10.30;99.90;;;;;;5118000;27;20446;-74
2023/03/20 07:36:37;;;;;;;12.50;10.00;;;10.50;99.90;;;;;;5120158;27;20523;-74
2023/03/20 07:39:06;;;;;;;10.70;9.60;;;10.50;99.90;;;;;;5103813;28;20515;-74
2023/03/20 07:41:33;;;;;;;10.20;8.10;;;10.70;99.90;;;;;;5105264;27;20463;-74
2023/03/20 07:43:59;;;;;;;8.30;7.50;;;10.70;99.90;;;;;;5101441;27;20462;-73
2023/03/20 07:46:27;;;;;;;11.17;9.37;;;10.80;99.90;;;;;;5107624;27;20974;-75
2023/03/20 07:48:55;;;;;;;9.17;8.00;;;10.80;99.90;;;;;;5106533;27;20453;-74
2023/03/20 07:51:22;;;;;;;9.77;8.87;;;10.80;99.90;;;;;;5113763;27;20593;-73
2023/03/20 07:53:49;;;;;;;10.20;8.40;;;10.70;99.90;;;;;;5113801;27;20455;-74
2023/03/20 07:56:17;;;;;;;9.00;8.10;;;10.70;99.90;;;;;;5097416;28;21155;-74
2023/03/20 07:58:44;;;;;;;15.73;10.43;;;10.60;99.90;;;;;;5115173;27;20453;-74
2023/03/20 08:01:11;;;;;;;29.93;16.47;;;10.60;99.90;;;;;;5093411;27;21211;-74
2023/03/20 08:03:38;;;;;;;27.37;18.70;;;10.50;99.90;;;;;;5107775;27;20972;-75
2023/03/20 08:06:08;;;;;;;13.17;11.80;;;10.60;99.90;;;;;;5106616;27;20452;-74
2023/03/20 08:08:35;;;;;;;8.43;7.50;;;10.60;99.90;;;;;;5113622;27;20447;-74
2023/03/20 08:11:02;;;;;;;7.67;6.97;;;10.70;99.90;;;;;;5096611;27;20463;-74
2023/03/20 08:13:30;;;;;;;6.70;6.20;;;10.80;99.90;;;;;;5120764;27;20438;-74
2023/03/20 08:15:57;;;;;;;6.67;6.03;;;10.90;99.90;;;;;;5094157;28;20559;-74
2023/03/20 08:18:25;;;;;;;6.20;5.70;;;10.80;99.90;;;;;;5100631;27;20501;-74
2023/03/20 08:20:52;;;;;;;6.73;6.03;;;10.90;99.90;;;;;;5105742;28;20450;-74
2023/03/20 08:23:19;;;;;;;6.07;5.57;;;11.00;99.90;;;;;;5104195;28;20467;-74
2023/03/20 08:25:48;;;;;;;5.70;5.13;;;11.00;99.90;;;;;;5102768;28;20492;-73
2023/03/20 08:28:15;;;;;;;5.60;5.10;;;11.20;99.90;;;;;;5106058;28;20450;-74
2023/03/20 08:30:43;;;;;;;6.47;5.97;;;11.20;99.90;;;;;;5104649;28;20997;-74
2023/03/20 08:33:11;;;;;;;6.63;6.10;;;11.30;99.90;;;;;;5093268;28;20951;-74
2023/03/20 08:35:38;;;;;;;8.37;7.67;;;11.40;99.90;;;;;;5104830;28;20466;-73
2023/03/20 08:38:05;;;;;;;8.00;7.10;;;11.30;99.90;;;;;;5104168;28;20447;-74
2023/03/20 08:40:32;;;;;;;6.40;5.80;;;11.20;99.90;;;;;;5098547;28;20458;-74
2023/03/20 08:42:59;;;;;;;6.80;6.20;;;11.20;99.90;;;;;;5107378;28;20442;-73
2023/03/20 08:45:26;;;;;;;8.23;7.30;;;11.20;99.90;;;;;;5101457;28;20477;-73
2023/03/20 08:47:55;;;;;;;8.63;7.83;;;11.30;99.90;;;;;;5096838;28;21150;-74
2023/03/20 08:50:22;;;;;;;10.37;9.30;;;11.50;99.90;;;;;;5103421;28;20557;-74
2023/03/20 08:52:49;;;;;;;11.13;9.70;;;11.60;99.90;;;;;;5105224;28;20451;-74
2023/03/20 08:55:17;;;;;;;10.10;9.07;;;11.70;99.90;;;;;;5106207;28;20477;-74
2023/03/20 08:57:44;;;;;;;10.03;9.20;;;11.60;99.90;;;;;;5104156;28;20518;-74
2023/03/20 09:00:14;;;;;;;9.43;8.53;;;11.50;99.90;;;;;;5102632;28;21207;-73
2023/03/20 09:02:42;;;;;;;8.83;8.03;;;11.40;99.90;;;;;;5105828;28;20455;-74
2023/03/20 09:05:11;;;;;;;13.50;12.20;;;11.50;99.90;;;;;;5103923;28;20780;-74
2023/03/20 09:07:38;;;;;;;10.27;9.47;;;11.50;99.90;;;;;;5103311;28;20445;-73
2023/03/20 09:10:06;;;;;;;10.00;8.80;;;11.50;99.90;;;;;;5100093;28;20462;-73
2023/03/20 09:12:33;;;;;;;9.67;8.67;;;11.50;99.90;;;;;;5106835;28;20496;-74
2023/03/20 09:15:01;;;;;;;10.47;9.37;;;11.70;99.90;;;;;;5103470;28;20454;-74
2023/03/20 09:17:28;;;;;;;8.77;7.97;;;11.90;99.90;;;;;;5105316;28;20517;-74
2023/03/20 09:19:55;;;;;;;11.33;7.90;;;11.90;99.90;;;;;;5102430;28;20459;-74
2023/03/20 09:22:24;;;;;;;8.30;7.50;;;11.80;99.90;;;;;;5100196;28;20442;-73
2023/03/20 09:24:51;;;;;;;8.90;8.07;;;11.80;99.90;;;;;;5097176;28;20461;-73
2023/03/20 09:27:19;;;;;;;9.70;8.90;;;12.00;99.90;;;;;;5095134;28;20487;-74
2023/03/20 09:29:46;;;;;;;6.50;5.90;;;12.10;99.90;;;;;;5102062;28;21033;-74
2023/03/20 09:32:14;;;;;;;7.70;6.87;;;12.40;99.90;;;;;;5091581;28;21149;-74
2023/03/20 09:34:41;;;;;;;7.87;7.20;;;12.40;99.90;;;;;;5105274;28;20450;-73
2023/03/20 09:37:08;;;;;;;7.50;6.73;;;12.20;99.90;;;;;;5105826;28;20482;-73
2023/03/20 09:39:36;;;;;;;7.20;6.63;;;12.20;99.90;;;;;;5102021;28;20483;-74
2023/03/20 09:42:10;;;;;;;7.57;6.77;;;12.30;99.90;;;;;;5095602;28;20442;-73
2023/03/20 09:44:48;;;;;;;7.07;6.47;;;12.30;99.90;;;;;;5103804;28;20450;-73
2023/03/20 09:47:22;;;;;;;6.20;5.70;;;12.00;99.90;;;;;;5097004;28;20491;-73
2023/03/20 09:50:02;;;;;;;7.20;6.50;;;11.80;99.90;;;;;;5099356;28;20455;-74
2023/03/20 09:52:33;;;;;;;6.10;5.67;;;11.70;99.90;;;;;;5094311;28;21183;-74
2023/03/20 09:55:06;;;;;;;7.00;6.30;;;11.70;99.90;;;;;;5096510;28;20562;-72
2023/03/20 09:57:39;;;;;;;6.37;5.80;;;12.10;99.90;;;;;;5094159;28;20506;-72
2023/03/20 10:00:12;;;;;;;7.00;6.37;;;12.10;99.90;;;;;;5100175;28;20443;-72
2023/03/20 10:02:48;;;;;;;8.90;8.00;;;12.20;99.90;;;;;;5100884;28;20473;-74
2023/03/20 10:05:23;;;;;;;6.63;6.07;;;12.20;99.90;;;;;;5095189;28;20454;-74
2023/03/20 10:07:51;;;;;;;6.53;5.80;;;12.10;99.90;;;;;;5099594;28;20451;-73
2023/03/20 10:10:23;;;;;;;5.93;5.53;;;12.00;99.90;;;;;;5102480;28;20540;-73
2023/03/20 10:13:00;;;;;;;5.57;5.07;;;11.90;99.90;;;;;;5102868;28;20498;-73
2023/03/20 10:15:45;;;;;;;6.00;5.60;;;11.90;99.90;;;;;;5106342;28;20535;-72
2023/03/20 10:18:18;;;;;;;6.10;5.53;;;11.80;99.90;;;;;;5097975;28;20516;-73
2023/03/20 10:20:51;;;;;;;7.20;6.60;;;11.80;99.90;;;;;;5106217;28;20466;-73
2023/03/20 10:23:24;;;;;;;10.33;6.87;;;12.00;99.90;;;;;;5102639;28;20955;-74
2023/03/20 10:25:56;;;;;;;18.80;15.07;;;12.40;99.90;;;;;;5103709;28;20993;-74
2023/03/20 10:28:28;;;;;;;10.20;8.63;;;12.60;99.90;;;;;;5108327;28;20430;-73
2023/03/20 10:31:11;;;;;;;13.50;11.27;;;12.70;99.90;;;;;;5108444;28;20446;-73
2023/03/20 10:33:52;;;;;;;12.77;11.47;;;12.50;99.90;;;;;;5109886;28;20943;-74
2023/03/20 10:36:32;;;;;;;8.07;5.87;;;12.70;99.90;;;;;;5104820;28;20570;-73
2023/03/20 10:39:05;;;;;;;6.70;5.73;;;12.90;99.90;;;;;;5108535;28;20447;-74
2023/03/20 10:41:37;;;;;;;9.00;8.10;;;13.20;99.90;;;;;;5107541;28;20451;-73
2023/03/20 10:44:07;;;;;;;9.07;8.17;;;13.10;99.90;;;;;;5108072;28;20449;-73
2023/03/20 10:46:40;;;;;;;5.63;5.13;;;13.20;99.90;;;;;;5100136;28;20484;-74
2023/03/20 10:49:14;;;;;;;5.90;5.40;;;13.30;99.90;;;;;;5104924;28;20504;-74
2023/03/20 10:51:46;;;;;;;5.50;4.10;;;13.30;99.90;;;;;;5101132;28;20479;-73
2023/03/20 10:54:24;;;;;;;4.03;3.73;;;13.10;99.90;;;;;;5107234;28;20462;-74
2023/03/20 10:56:55;;;;;;;4.80;3.90;;;12.80;99.90;;;;;;5098740;28;20546;-74
2023/03/20 10:59:24;;;;;;;2.43;2.13;;;12.70;99.90;;;;;;5107041;28;20449;-74
2023/03/20 11:01:52;;;;;;;4.13;3.83;;;12.60;99.90;;;;;;5109109;28;20994;-73
2023/03/20 11:04:19;;;;;;;5.27;3.93;;;12.50;99.90;;;;;;5106458;28;20516;-74
2023/03/20 11:06:53;;;;;;;4.17;3.87;;;12.60;99.90;;;;;;5101821;28;20447;-74
2023/03/20 11:09:21;;;;;;;3.97;3.67;;;12.70;99.90;;;;;;5105569;28;21126;-73
2023/03/20 11:11:52;;;;;;;3.67;3.47;;;12.80;99.90;;;;;;5104689;28;20443;-73
2023/03/20 11:14:22;;;;;;;5.13;4.70;;;12.80;99.90;;;;;;5101375;28;20503;-73
2023/03/20 11:16:51;;;;;;;4.37;3.93;;;13.00;99.90;;;;;;5100016;28;20482;-74
2023/03/20 11:19:20;;;;;;;4.80;4.33;;;13.10;99.90;;;;;;5099649;28;20447;-74
2023/03/20 11:21:50;;;;;;;4.47;4.07;;;13.20;99.90;;;;;;5097519;28;20451;-74
2023/03/20 11:24:26;;;;;;;4.07;3.67;;;13.40;99.90;;;;;;5106568;28;20516;-77
2023/03/20 11:26:54;;;;;;;4.87;4.47;;;13.40;99.90;;;;;;5102344;28;20544;-76
2023/03/20 11:29:29;;;;;;;5.30;4.10;;;13.40;99.90;;;;;;5104142;28;20442;-77
2023/03/20 11:32:05;;;;;;;4.37;3.97;;;13.40;99.90;;;;;;5105834;28;20900;-77
2023/03/20 11:34:36;;;;;;;3.93;3.73;;;13.40;99.90;;;;;;5106870;28;20786;-77
2023/03/20 11:37:07;;;;;;;3.83;3.53;;;13.30;99.90;;;;;;5101554;28;20998;-77
2023/03/20 11:39:36;;;;;;;4.00;3.70;;;13.60;99.90;;;;;;5103669;28;21003;-77
2023/03/20 11:42:04;;;;;;;4.93;4.53;;;13.60;99.90;;;;;;5105457;28;20467;-74
2023/03/20 11:44:34;;;;;;;4.20;3.90;;;13.60;99.90;;;;;;5106006;28;20535;-75
2023/03/20 11:47:03;;;;;;;4.03;3.73;;;13.40;99.90;;;;;;5100223;28;20458;-74
2023/03/20 11:49:31;;;;;;;3.47;3.27;;;13.50;99.90;;;;;;5101770;28;21217;-74
2023/03/20 11:52:02;;;;;;;7.13;4.20;;;13.40;99.90;;;;;;5105678;28;20439;-74
2023/03/20 11:54:30;;;;;;;4.93;4.53;;;13.20;99.90;;;;;;5102846;28;20515;-74
2023/03/20 11:56:59;;;;;;;3.07;2.77;;;13.40;99.90;;;;;;5107591;28;20514;-74
2023/03/20 11:59:30;;;;;;;3.50;3.20;;;13.50;99.90;;;;;;5106720;28;20481;-74
2023/03/20 12:02:00;;;;;;;3.57;3.27;;;13.60;99.90;;;;;;5096704;28;20930;-74
2023/03/20 12:04:29;;;;;;;3.47;3.27;;;13.50;99.90;;;;;;5102072;28;21030;-73
2023/03/20 12:07:00;;;;;;;4.87;4.30;;;13.60;99.90;;;;;;5103664;28;20465;-74
2023/03/20 12:09:37;;;;;;;4.40;4.10;;;13.60;99.90;;;;;;5097730;28;20451;-73
2023/03/20 12:12:12;;;;;;;4.60;4.20;;;13.30;99.90;;;;;;5104541;28;20449;-74
2023/03/20 12:14:48;;;;;;;3.90;3.60;;;13.40;99.90;;;;;;5101766;28;20458;-74
2023/03/20 12:17:42;;;;;;;3.20;3.00;;;13.40;99.90;;;;;;5104166;28;20562;-74
2023/03/20 12:20:19;;;;;;;4.17;3.80;;;13.70;99.90;;;;;;5105233;28;20511;-74
2023/03/20 12:22:53;;;;;;;4.20;3.83;;;14.00;99.90;;;;;;5099398;28;20454;-74
2023/03/20 12:25:24;;;;;;;3.50;3.20;;;14.30;99.90;;;;;;5107833;28;20922;-74
2023/03/20 12:28:01;;;;;;;4.23;3.83;;;14.30;99.90;;;;;;5107762;28;20463;-74
2023/03/20 12:30:36;;;;;;;3.97;3.67;;;14.40;99.90;;;;;;5101677;28;20507;-74
2023/03/20 12:33:10;;;;;;;4.83;3.57;;;14.40;99.90;;;;;;5102129;28;20941;-74
2023/03/20 12:35:40;;;;;;;4.10;3.00;;;14.90;99.90;;;;;;5107004;28;20454;-74
2023/03/20 12:38:20;;;;;;;2.73;2.53;;;14.70;99.90;;;;;;5103284;28;20478;-74
2023/03/20 12:40:51;;;;;;;3.50;2.40;;;14.30;99.90;;;;;;5101753;28;20454;-74
2023/03/20 12:43:25;;;;;;;2.20;2.00;;;14.50;99.90;;;;;;5107024;28;20450;-74
2023/03/20 12:46:01;;;;;;;3.00;2.80;;;14.30;99.90;;;;;;5106666;28;20446;-74
2023/03/20 12:48:52;;;;;;;3.27;3.00;;;13.90;99.90;;;;;;5092517;28;20523;-74
2023/03/20 12:51:27;;;;;;;3.00;2.70;;;13.70;99.90;;;;;;5104068;28;20442;-74
2023/03/20 12:54:05;;;;;;;3.50;3.20;;;13.30;99.90;;;;;;5100349;28;20472;-74
2023/03/20 12:56:51;;;;;;;4.73;3.07;;;13.10;99.90;;;;;;5106147;28;21157;-74
2023/03/20 12:59:27;;;;;;;3.20;2.47;;;12.90;99.90;;;;;;5098549;28;20503;-74